Glacier, Washington
Current Conditions -  °F | °C
As of 10:00 AM on Friday 19 Dec 2014 (Local Time) from CYXX Reporting Station
Broken Clouds Broken Clouds  
Wind Chill: 41°   Ceiling: 2500
Heat Index: 45°   Visibility: 15mi
Dew Point: 45°   Wind: 6mph
Humidity: 100%   Direction: 190°S
Pressure: 29.9"   Gusts: NA
Location:  48.8512°N, 121.903°W
Report Text: CYXX 191800Z 19005KT 15SM BKN025 BKN050 07/07 A2990 RMK SC5SC2 SLP125
Loading
Personal Weather Stations






























Interactive Weather Map New forecast layout! Learn more

10-Day Weather Forecast

Advertisements
Track Severe Weather on mobile